sensor_id;sensor_type;location;lat;lon;timestamp;temperature;humidity
7704;DHT22;3894;49.700;10.770;2024-03-08T00:00:51;2.50;99.90
7704;DHT22;3894;49.700;10.770;2024-03-08T00:03:17;2.40;99.90
7704;DHT22;3894;49.700;10.770;2024-03-08T00:05:42;2.40;99.90
7704;DHT22;3894;49.700;10.770;2024-03-08T00:08:08;2.40;99.90
7704;DHT22;3894;49.700;10.770;2024-03-08T00:10:35;2.40;99.90
7704;DHT22;3894;49.700;10.770;2024-03-08T00:13:01;2.40;99.90
7704;DHT22;3894;49.700;10.770;2024-03-08T00:15:29;2.40;99.90
7704;DHT22;3894;49.700;10.770;2024-03-08T00:17:55;2.40;99.90
7704;DHT22;3894;49.700;10.770;2024-03-08T00:20:20;2.40;99.90
7704;DHT22;3894;49.700;10.770;2024-03-08T00:22:46;2.40;99.90
7704;DHT22;3894;49.700;10.770;2024-03-08T00:25:12;2.30;99.90
7704;DHT22;3894;49.700;10.770;2024-03-08T00:27:38;2.30;99.90
7704;DHT22;3894;49.700;10.770;2024-03-08T00:30:04;2.40;99.90
7704;DHT22;3894;49.700;10.770;2024-03-08T00:32:30;2.30;99.90
7704;DHT22;3894;49.700;10.770;2024-03-08T00:34:57;2.30;99.90
7704;DHT22;3894;49.700;10.770;2024-03-08T00:37:23;2.30;99.90
7704;DHT22;3894;49.700;10.770;2024-03-08T00:39:49;2.30;99.90
7704;DHT22;3894;49.700;10.770;2024-03-08T00:42:16;2.30;99.90
7704;DHT22;3894;49.700;10.770;2024-03-08T00:44:42;2.30;99.90
7704;DHT22;3894;49.700;10.770;2024-03-08T00:47:07;2.30;99.90
7704;DHT22;3894;49.700;10.770;2024-03-08T00:49:33;2.30;99.90
7704;DHT22;3894;49.700;10.770;2024-03-08T00:51:59;2.30;99.90
7704;DHT22;3894;49.700;10.770;2024-03-08T00:54:24;2.20;99.90
7704;DHT22;3894;49.700;10.770;2024-03-08T00:56:50;2.30;99.90
7704;DHT22;3894;49.700;10.770;2024-03-08T00:59:16;2.20;99.90
7704;DHT22;3894;49.700;10.770;2024-03-08T01:01:41;2.20;99.90
7704;DHT22;3894;49.700;10.770;2024-03-08T01:04:07;2.20;99.90
7704;DHT22;3894;49.700;10.770;2024-03-08T01:06:34;2.10;99.90
7704;DHT22;3894;49.700;10.770;2024-03-08T01:08:59;2.10;99.90
7704;DHT22;3894;49.700;10.770;2024-03-08T01:11:25;2.10;99.90
7704;DHT22;3894;49.700;10.770;2024-03-08T01:13:51;2.10;99.90
7704;DHT22;3894;49.700;10.770;2024-03-08T01:16:16;2.10;99.90
7704;DHT22;3894;49.700;10.770;2024-03-08T01:18:43;2.10;99.90
7704;DHT22;3894;49.700;10.770;2024-03-08T01:21:08;2.00;99.90
7704;DHT22;3894;49.700;10.770;2024-03-08T01:23:34;2.10;99.90
7704;DHT22;3894;49.700;10.770;2024-03-08T01:26:00;2.00;99.90
7704;DHT22;3894;49.700;10.770;2024-03-08T01:28:27;2.00;99.90
7704;DHT22;3894;49.700;10.770;2024-03-08T01:30:53;2.00;99.90
7704;DHT22;3894;49.700;10.770;2024-03-08T01:33:26;2.00;99.90
7704;DHT22;3894;49.700;10.770;2024-03-08T01:35:55;2.00;99.90
7704;DHT22;3894;49.700;10.770;2024-03-08T01:38:22;2.00;99.90
7704;DHT22;3894;49.700;10.770;2024-03-08T01:40:49;2.00;99.90
7704;DHT22;3894;49.700;10.770;2024-03-08T01:43:21;2.00;99.90
7704;DHT22;3894;49.700;10.770;2024-03-08T01:45:48;2.00;99.90
7704;DHT22;3894;49.700;10.770;2024-03-08T01:48:17;2.00;99.90
7704;DHT22;3894;49.700;10.770;2024-03-08T01:50:44;1.90;99.90
7704;DHT22;3894;49.700;10.770;2024-03-08T01:53:10;1.90;99.90
7704;DHT22;3894;49.700;10.770;2024-03-08T01:55:38;1.90;99.90
7704;DHT22;3894;49.700;10.770;2024-03-08T01:58:05;1.90;99.90
7704;DHT22;3894;49.700;10.770;2024-03-08T02:00:32;1.80;99.90
7704;DHT22;3894;49.700;10.770;2024-03-08T02:02:58;1.80;99.90
7704;DHT22;3894;49.700;10.770;2024-03-08T02:05:24;1.80;99.90
7704;DHT22;3894;49.700;10.770;2024-03-08T02:08:24;1.80;99.90
7704;DHT22;3894;49.700;10.770;2024-03-08T02:10:50;1.70;99.90
7704;DHT22;3894;49.700;10.770;2024-03-08T02:13:16;1.70;99.90
7704;DHT22;3894;49.700;10.770;2024-03-08T02:16:00;1.70;99.90
7704;DHT22;3894;49.700;10.770;2024-03-08T02:18:27;1.70;99.90
7704;DHT22;3894;49.700;10.770;2024-03-08T02:20:57;1.70;99.90
7704;DHT22;3894;49.700;10.770;2024-03-08T02:23:23;1.70;99.90
7704;DHT22;3894;49.700;10.770;2024-03-08T02:25:53;1.70;99.90
7704;DHT22;3894;49.700;10.770;2024-03-08T02:28:19;1.70;99.90
7704;DHT22;3894;49.700;10.770;2024-03-08T02:30:48;1.60;99.90
7704;DHT22;3894;49.700;10.770;2024-03-08T02:33:15;1.60;99.90
7704;DHT22;3894;49.700;10.770;2024-03-08T02:35:44;1.60;99.90
7704;DHT22;3894;49.700;10.770;2024-03-08T02:38:13;1.60;99.90
7704;DHT22;3894;49.700;10.770;2024-03-08T02:40:47;1.60;99.90
7704;DHT22;3894;49.700;10.770;2024-03-08T02:43:14;1.50;99.90
7704;DHT22;3894;49.700;10.770;2024-03-08T02:45:40;1.60;99.90
7704;DHT22;3894;49.700;10.770;2024-03-08T02:48:07;1.50;99.90
7704;DHT22;3894;49.700;10.770;2024-03-08T02:50:33;1.50;99.90
7704;DHT22;3894;49.700;10.770;2024-03-08T02:53:00;1.50;99.90
7704;DHT22;3894;49.700;10.770;2024-03-08T02:55:26;1.50;99.90
7704;DHT22;3894;49.700;10.770;2024-03-08T02:57:52;1.50;99.90
7704;DHT22;3894;49.700;10.770;2024-03-08T03:00:20;1.50;99.90
7704;DHT22;3894;49.700;10.770;2024-03-08T03:02:47;1.50;99.90
7704;DHT22;3894;49.700;10.770;2024-03-08T03:05:12;1.50;99.90
7704;DHT22;3894;49.700;10.770;2024-03-08T03:07:38;1.50;99.90
7704;DHT22;3894;49.700;10.770;2024-03-08T03:10:04;1.50;99.90
7704;DHT22;3894;49.700;10.770;2024-03-08T03:12:31;1.50;99.90
7704;DHT22;3894;49.700;10.770;2024-03-08T03:14:57;1.60;99.90
7704;DHT22;3894;49.700;10.770;2024-03-08T03:17:26;1.60;99.90
7704;DHT22;3894;49.700;10.770;2024-03-08T03:19:52;1.60;99.90
7704;DHT22;3894;49.700;10.770;2024-03-08T03:22:19;1.60;99.90
7704;DHT22;3894;49.700;10.770;2024-03-08T03:24:45;1.50;99.90
7704;DHT22;3894;49.700;10.770;2024-03-08T03:27:12;1.40;99.90
7704;DHT22;3894;49.700;10.770;2024-03-08T03:29:39;1.20;99.90
7704;DHT22;3894;49.700;10.770;2024-03-08T03:32:05;1.10;99.90
7704;DHT22;3894;49.700;10.770;2024-03-08T03:34:33;1.00;99.90
7704;DHT22;3894;49.700;10.770;2024-03-08T03:37:01;1.00;99.90
7704;DHT22;3894;49.700;10.770;2024-03-08T03:39:28;1.00;99.90
7704;DHT22;3894;49.700;10.770;2024-03-08T03:41:58;1.00;99.90
7704;DHT22;3894;49.700;10.770;2024-03-08T03:44:24;1.00;99.90
7704;DHT22;3894;49.700;10.770;2024-03-08T03:46:49;1.10;99.90
7704;DHT22;3894;49.700;10.770;2024-03-08T03:49:18;1.20;99.90
7704;DHT22;3894;49.700;10.770;2024-03-08T03:51:43;1.20;99.90
7704;DHT22;3894;49.700;10.770;2024-03-08T03:54:10;1.20;99.90
7704;DHT22;3894;49.700;10.770;2024-03-08T03:56:35;1.20;99.90
7704;DHT22;3894;49.700;10.770;2024-03-08T03:59:01;1.20;99.90
7704;DHT22;3894;49.700;10.770;2024-03-08T04:01:28;1.20;99.90
7704;DHT22;3894;49.700;10.770;2024-03-08T04:03:55;1.20;99.90
7704;DHT22;3894;49.700;10.770;2024-03-08T04:06:20;1.10;99.90
7704;DHT22;3894;49.700;10.770;2024-03-08T04:08:46;1.10;99.90
7704;DHT22;3894;49.700;10.770;2024-03-08T04:11:11;1.10;99.90
7704;DHT22;3894;49.700;10.770;2024-03-08T04:13:37;1.10;99.90
7704;DHT22;3894;49.700;10.770;2024-03-08T04:16:03;1.10;99.90
7704;DHT22;3894;49.700;10.770;2024-03-08T04:18:33;1.10;99.90
7704;DHT22;3894;49.700;10.770;2024-03-08T04:21:02;1.10;99.90
7704;DHT22;3894;49.700;10.770;2024-03-08T04:23:28;1.10;99.90
7704;DHT22;3894;49.700;10.770;2024-03-08T04:25:54;1.10;99.90
7704;DHT22;3894;49.700;10.770;2024-03-08T04:28:20;1.10;99.90
7704;DHT22;3894;49.700;10.770;2024-03-08T04:30:45;1.10;99.90
7704;DHT22;3894;49.700;10.770;2024-03-08T04:33:11;1.10;99.90
7704;DHT22;3894;49.700;10.770;2024-03-08T04:35:37;1.10;99.90
7704;DHT22;3894;49.700;10.770;2024-03-08T04:38:03;1.10;99.90
7704;DHT22;3894;49.700;10.770;2024-03-08T04:40:31;1.10;99.90
7704;DHT22;3894;49.700;10.770;2024-03-08T04:42:58;1.10;99.90
7704;DHT22;3894;49.700;10.770;2024-03-08T04:45:24;1.00;99.90
7704;DHT22;3894;49.700;10.770;2024-03-08T04:47:51;1.00;99.90
7704;DHT22;3894;49.700;10.770;2024-03-08T04:50:18;1.00;99.90
7704;DHT22;3894;49.700;10.770;2024-03-08T04:52:43;1.00;99.90
7704;DHT22;3894;49.700;10.770;2024-03-08T04:55:09;1.00;99.90
7704;DHT22;3894;49.700;10.770;2024-03-08T04:57:35;1.00;99.90
7704;DHT22;3894;49.700;10.770;2024-03-08T05:00:02;1.00;99.90
7704;DHT22;3894;49.700;10.770;2024-03-08T05:02:29;1.00;99.90
7704;DHT22;3894;49.700;10.770;2024-03-08T05:04:56;1.00;99.90
7704;DHT22;3894;49.700;10.770;2024-03-08T05:07:21;1.00;99.90
7704;DHT22;3894;49.700;10.770;2024-03-08T05:09:47;1.00;99.90
7704;DHT22;3894;49.700;10.770;2024-03-08T05:12:18;1.00;99.90
7704;DHT22;3894;49.700;10.770;2024-03-08T05:14:45;1.00;99.90
7704;DHT22;3894;49.700;10.770;2024-03-08T05:17:11;1.00;99.90
7704;DHT22;3894;49.700;10.770;2024-03-08T05:19:37;1.00;99.90
7704;DHT22;3894;49.700;10.770;2024-03-08T05:22:03;1.00;99.90
7704;DHT22;3894;49.700;10.770;2024-03-08T05:24:30;1.00;99.90
7704;DHT22;3894;49.700;10.770;2024-03-08T05:26:55;1.00;99.90
7704;DHT22;3894;49.700;10.770;2024-03-08T05:29:21;1.00;99.90
7704;DHT22;3894;49.700;10.770;2024-03-08T05:31:47;1.00;99.90
7704;DHT22;3894;49.700;10.770;2024-03-08T05:34:14;1.00;99.90
7704;DHT22;3894;49.700;10.770;2024-03-08T05:36:40;0.90;99.90
7704;DHT22;3894;49.700;10.770;2024-03-08T05:39:06;1.00;99.90
7704;DHT22;3894;49.700;10.770;2024-03-08T05:41:32;1.00;99.90
7704;DHT22;3894;49.700;10.770;2024-03-08T05:43:58;1.00;99.90
7704;DHT22;3894;49.700;10.770;2024-03-08T05:46:23;1.00;99.90
7704;DHT22;3894;49.700;10.770;2024-03-08T05:48:49;1.00;99.90
7704;DHT22;3894;49.700;10.770;2024-03-08T05:51:14;1.00;99.90
7704;DHT22;3894;49.700;10.770;2024-03-08T05:53:40;1.00;99.90
7704;DHT22;3894;49.700;10.770;2024-03-08T05:56:06;1.00;99.90
7704;DHT22;3894;49.700;10.770;2024-03-08T05:58:32;1.00;99.90
7704;DHT22;3894;49.700;10.770;2024-03-08T06:00:57;1.00;99.90
7704;DHT22;3894;49.700;10.770;2024-03-08T06:03:23;1.00;99.90
7704;DHT22;3894;49.700;10.770;2024-03-08T06:05:49;1.00;99.90
7704;DHT22;3894;49.700;10.770;2024-03-08T06:08:15;1.00;99.90
7704;DHT22;3894;49.700;10.770;2024-03-08T06:10:41;1.00;99.90
7704;DHT22;3894;49.700;10.770;2024-03-08T06:13:06;1.10;99.90
7704;DHT22;3894;49.700;10.770;2024-03-08T06:15:32;1.10;99.90
7704;DHT22;3894;49.700;10.770;2024-03-08T06:17:58;1.10;99.90
7704;DHT22;3894;49.700;10.770;2024-03-08T06:20:23;1.10;99.90
7704;DHT22;3894;49.700;10.770;2024-03-08T06:22:52;1.20;99.90
7704;DHT22;3894;49.700;10.770;2024-03-08T06:25:18;1.20;99.90
7704;DHT22;3894;49.700;10.770;2024-03-08T06:27:43;1.30;99.90
7704;DHT22;3894;49.700;10.770;2024-03-08T06:30:10;1.30;99.90
7704;DHT22;3894;49.700;10.770;2024-03-08T06:32:36;1.30;99.90
7704;DHT22;3894;49.700;10.770;2024-03-08T06:35:06;1.30;99.90
7704;DHT22;3894;49.700;10.770;2024-03-08T06:37:33;1.40;99.90
7704;DHT22;3894;49.700;10.770;2024-03-08T06:39:58;1.40;99.90
7704;DHT22;3894;49.700;10.770;2024-03-08T06:42:29;1.40;99.90
7704;DHT22;3894;49.700;10.770;2024-03-08T06:44:57;1.50;99.90
7704;DHT22;3894;49.700;10.770;2024-03-08T06:47:29;1.50;99.90
7704;DHT22;3894;49.700;10.770;2024-03-08T06:49:55;1.60;99.90
7704;DHT22;3894;49.700;10.770;2024-03-08T06:52:21;1.60;99.90
7704;DHT22;3894;49.700;10.770;2024-03-08T06:54:47;1.70;99.90
7704;DHT22;3894;49.700;10.770;2024-03-08T06:57:13;1.70;99.90
7704;DHT22;3894;49.700;10.770;2024-03-08T06:59:39;1.80;99.90
7704;DHT22;3894;49.700;10.770;2024-03-08T07:02:05;1.80;99.90
7704;DHT22;3894;49.700;10.770;2024-03-08T07:04:34;1.90;99.90
7704;DHT22;3894;49.700;10.770;2024-03-08T07:07:03;2.00;99.90
7704;DHT22;3894;49.700;10.770;2024-03-08T07:09:29;2.00;99.90
7704;DHT22;3894;49.700;10.770;2024-03-08T07:11:55;2.10;99.90
7704;DHT22;3894;49.700;10.770;2024-03-08T07:14:24;2.10;99.90
7704;DHT22;3894;49.700;10.770;2024-03-08T07:16:50;2.20;99.90
7704;DHT22;3894;49.700;10.770;2024-03-08T07:19:16;2.30;99.90
7704;DHT22;3894;49.700;10.770;2024-03-08T07:21:43;2.40;99.90
7704;DHT22;3894;49.700;10.770;2024-03-08T07:24:09;2.50;99.90
7704;DHT22;3894;49.700;10.770;2024-03-08T07:26:53;2.70;99.90
7704;DHT22;3894;49.700;10.770;2024-03-08T07:29:19;2.80;99.90
7704;DHT22;3894;49.700;10.770;2024-03-08T07:31:45;2.90;99.90
7704;DHT22;3894;49.700;10.770;2024-03-08T07:34:16;3.00;99.90
7704;DHT22;3894;49.700;10.770;2024-03-08T07:36:42;3.20;99.90
7704;DHT22;3894;49.700;10.770;2024-03-08T07:39:08;3.20;99.90
7704;DHT22;3894;49.700;10.770;2024-03-08T07:41:40;3.30;99.90
7704;DHT22;3894;49.700;10.770;2024-03-08T07:44:06;3.40;99.90
7704;DHT22;3894;49.700;10.770;2024-03-08T07:46:32;3.60;99.90
7704;DHT22;3894;49.700;10.770;2024-03-08T07:48:59;3.80;99.90
7704;DHT22;3894;49.700;10.770;2024-03-08T07:51:25;3.90;99.90
7704;DHT22;3894;49.700;10.770;2024-03-08T07:53:51;4.00;99.90
7704;DHT22;3894;49.700;10.770;2024-03-08T07:56:16;4.10;99.90
7704;DHT22;3894;49.700;10.770;2024-03-08T07:58:44;4.20;99.90
7704;DHT22;3894;49.700;10.770;2024-03-08T08:01:18;4.30;99.90
7704;DHT22;3894;49.700;10.770;2024-03-08T08:03:45;4.30;99.90
7704;DHT22;3894;49.700;10.770;2024-03-08T08:06:10;4.50;99.90
7704;DHT22;3894;49.700;10.770;2024-03-08T08:08:41;4.50;99.90
7704;DHT22;3894;49.700;10.770;2024-03-08T08:11:07;4.60;99.90
7704;DHT22;3894;49.700;10.770;2024-03-08T08:13:34;4.80;99.90
7704;DHT22;3894;49.700;10.770;2024-03-08T08:16:02;4.90;99.90
7704;DHT22;3894;49.700;10.770;2024-03-08T08:18:28;5.00;99.90
7704;DHT22;3894;49.700;10.770;2024-03-08T08:20:55;5.10;99.90
7704;DHT22;3894;49.700;10.770;2024-03-08T08:23:20;5.10;99.90
7704;DHT22;3894;49.700;10.770;2024-03-08T08:25:47;5.20;99.90
7704;DHT22;3894;49.700;10.770;2024-03-08T08:28:16;5.20;99.90
7704;DHT22;3894;49.700;10.770;2024-03-08T08:30:44;5.30;99.90
7704;DHT22;3894;49.700;10.770;2024-03-08T08:33:10;5.40;99.90
7704;DHT22;3894;49.700;10.770;2024-03-08T08:35:36;5.60;99.90
7704;DHT22;3894;49.700;10.770;2024-03-08T08:38:03;5.60;99.90
7704;DHT22;3894;49.700;10.770;2024-03-08T08:40:29;5.70;99.90
7704;DHT22;3894;49.700;10.770;2024-03-08T08:42:56;5.90;99.90
7704;DHT22;3894;49.700;10.770;2024-03-08T08:45:25;5.90;99.90
7704;DHT22;3894;49.700;10.770;2024-03-08T08:47:51;5.90;99.90
7704;DHT22;3894;49.700;10.770;2024-03-08T08:50:17;6.00;99.90
7704;DHT22;3894;49.700;10.770;2024-03-08T08:52:49;6.20;99.90
7704;DHT22;3894;49.700;10.770;2024-03-08T08:55:15;6.20;99.90
7704;DHT22;3894;49.700;10.770;2024-03-08T08:57:43;6.20;99.90
7704;DHT22;3894;49.700;10.770;2024-03-08T09:00:10;6.20;99.90
7704;DHT22;3894;49.700;10.770;2024-03-08T09:02:41;6.20;99.90
7704;DHT22;3894;49.700;10.770;2024-03-08T09:05:07;6.30;99.90
7704;DHT22;3894;49.700;10.770;2024-03-08T09:07:33;6.30;99.90
7704;DHT22;3894;49.700;10.770;2024-03-08T09:09:59;6.40;99.90
7704;DHT22;3894;49.700;10.770;2024-03-08T09:12:25;6.40;99.90
7704;DHT22;3894;49.700;10.770;2024-03-08T09:14:51;6.40;99.90
7704;DHT22;3894;49.700;10.770;2024-03-08T09:17:17;6.50;99.90
7704;DHT22;3894;49.700;10.770;2024-03-08T09:19:46;6.60;99.90
7704;DHT22;3894;49.700;10.770;2024-03-08T09:22:13;6.80;99.90
7704;DHT22;3894;49.700;10.770;2024-03-08T09:24:38;6.90;99.90
7704;DHT22;3894;49.700;10.770;2024-03-08T09:27:04;7.00;99.90
7704;DHT22;3894;49.700;10.770;2024-03-08T09:29:30;7.00;99.90
7704;DHT22;3894;49.700;10.770;2024-03-08T09:31:55;6.90;99.90
7704;DHT22;3894;49.700;10.770;2024-03-08T09:34:21;7.10;99.90
7704;DHT22;3894;49.700;10.770;2024-03-08T09:36:47;7.20;99.90
7704;DHT22;3894;49.700;10.770;2024-03-08T09:39:13;7.10;99.90
7704;DHT22;3894;49.700;10.770;2024-03-08T09:41:43;7.10;99.90
7704;DHT22;3894;49.700;10.770;2024-03-08T09:44:09;7.10;99.90
7704;DHT22;3894;49.700;10.770;2024-03-08T09:46:35;7.10;99.90
7704;DHT22;3894;49.700;10.770;2024-03-08T09:49:01;7.20;99.90
7704;DHT22;3894;49.700;10.770;2024-03-08T09:51:33;7.20;99.90
7704;DHT22;3894;49.700;10.770;2024-03-08T09:54:01;7.20;99.90
7704;DHT22;3894;49.700;10.770;2024-03-08T09:56:32;7.20;99.90
7704;DHT22;3894;49.700;10.770;2024-03-08T09:59:01;7.40;99.90
7704;DHT22;3894;49.700;10.770;2024-03-08T10:01:29;7.40;99.90
7704;DHT22;3894;49.700;10.770;2024-03-08T10:03:57;7.60;99.90
7704;DHT22;3894;49.700;10.770;2024-03-08T10:06:23;7.70;99.90
7704;DHT22;3894;49.700;10.770;2024-03-08T10:08:50;7.80;99.90
7704;DHT22;3894;49.700;10.770;2024-03-08T10:11:17;8.00;99.90
7704;DHT22;3894;49.700;10.770;2024-03-08T10:13:45;8.00;99.90
7704;DHT22;3894;49.700;10.770;2024-03-08T10:16:12;8.00;99.90
7704;DHT22;3894;49.700;10.770;2024-03-08T10:18:37;8.00;99.90
7704;DHT22;3894;49.700;10.770;2024-03-08T10:21:05;8.00;99.90
7704;DHT22;3894;49.700;10.770;2024-03-08T10:23:37;8.10;99.90
7704;DHT22;3894;49.700;10.770;2024-03-08T10:26:15;8.20;99.90
7704;DHT22;3894;49.700;10.770;2024-03-08T10:28:50;8.30;99.90
7704;DHT22;3894;49.700;10.770;2024-03-08T10:31:16;8.20;99.90
7704;DHT22;3894;49.700;10.770;2024-03-08T10:33:43;8.30;99.90
7704;DHT22;3894;49.700;10.770;2024-03-08T10:36:10;8.40;99.90
7704;DHT22;3894;49.700;10.770;2024-03-08T10:38:37;8.30;99.90
7704;DHT22;3894;49.700;10.770;2024-03-08T10:41:06;8.30;99.90
7704;DHT22;3894;49.700;10.770;2024-03-08T10:43:39;8.40;99.90
7704;DHT22;3894;49.700;10.770;2024-03-08T10:46:18;8.60;99.90
7704;DHT22;3894;49.700;10.770;2024-03-08T10:48:50;8.80;99.90
7704;DHT22;3894;49.700;10.770;2024-03-08T10:51:19;8.80;99.90
7704;DHT22;3894;49.700;10.770;2024-03-08T10:53:46;8.90;99.90
7704;DHT22;3894;49.700;10.770;2024-03-08T10:56:13;8.90;99.90
7704;DHT22;3894;49.700;10.770;2024-03-08T10:58:40;9.00;99.90
7704;DHT22;3894;49.700;10.770;2024-03-08T11:01:07;9.00;99.90
7704;DHT22;3894;49.700;10.770;2024-03-08T11:09:11;9.30;99.90
7704;DHT22;3894;49.700;10.770;2024-03-08T11:11:52;9.40;99.90
7704;DHT22;3894;49.700;10.770;2024-03-08T11:14:44;9.50;99.90
7704;DHT22;3894;49.700;10.770;2024-03-08T11:17:10;9.50;99.90
7704;DHT22;3894;49.700;10.770;2024-03-08T11:19:36;9.50;99.90
7704;DHT22;3894;49.700;10.770;2024-03-08T11:22:03;9.60;99.90
7704;DHT22;3894;49.700;10.770;2024-03-08T11:24:37;9.70;99.90
7704;DHT22;3894;49.700;10.770;2024-03-08T11:27:06;9.70;99.90
7704;DHT22;3894;49.700;10.770;2024-03-08T11:29:33;9.70;99.90
7704;DHT22;3894;49.700;10.770;2024-03-08T11:32:11;9.70;99.90
7704;DHT22;3894;49.700;10.770;2024-03-08T11:34:39;9.80;99.90
7704;DHT22;3894;49.700;10.770;2024-03-08T11:37:10;9.80;99.90
7704;DHT22;3894;49.700;10.770;2024-03-08T11:39:39;9.90;99.90
7704;DHT22;3894;49.700;10.770;2024-03-08T11:42:05;10.00;99.90
7704;DHT22;3894;49.700;10.770;2024-03-08T11:44:32;10.10;99.90
7704;DHT22;3894;49.700;10.770;2024-03-08T11:46:57;10.20;99.90
7704;DHT22;3894;49.700;10.770;2024-03-08T11:49:23;10.20;99.90
7704;DHT22;3894;49.700;10.770;2024-03-08T11:51:52;10.20;99.90
7704;DHT22;3894;49.700;10.770;2024-03-08T11:54:21;10.20;99.90
7704;DHT22;3894;49.700;10.770;2024-03-08T11:56:50;10.20;99.90
7704;DHT22;3894;49.700;10.770;2024-03-08T11:59:16;10.20;99.90
7704;DHT22;3894;49.700;10.770;2024-03-08T12:01:43;10.10;99.90
7704;DHT22;3894;49.700;10.770;2024-03-08T12:04:12;10.10;99.90
7704;DHT22;3894;49.700;10.770;2024-03-08T12:06:39;10.30;99.90
7704;DHT22;3894;49.700;10.770;2024-03-08T12:09:11;10.50;99.90
7704;DHT22;3894;49.700;10.770;2024-03-08T12:11:37;10.50;99.90
7704;DHT22;3894;49.700;10.770;2024-03-08T12:14:03;10.50;99.90
7704;DHT22;3894;49.700;10.770;2024-03-08T12:16:29;10.60;99.90
7704;DHT22;3894;49.700;10.770;2024-03-08T12:18:55;10.70;99.90
7704;DHT22;3894;49.700;10.770;2024-03-08T12:21:20;10.80;99.90
7704;DHT22;3894;49.700;10.770;2024-03-08T12:23:48;10.90;99.90
7704;DHT22;3894;49.700;10.770;2024-03-08T12:26:28;10.80;99.90
7704;DHT22;3894;49.700;10.770;2024-03-08T12:28:53;10.90;99.90
7704;DHT22;3894;49.700;10.770;2024-03-08T12:31:19;10.90;99.90
7704;DHT22;3894;49.700;10.770;2024-03-08T12:33:51;10.90;99.90
7704;DHT22;3894;49.700;10.770;2024-03-08T12:36:18;10.90;99.90
7704;DHT22;3894;49.700;10.770;2024-03-08T12:38:47;10.90;99.90
7704;DHT22;3894;49.700;10.770;2024-03-08T12:41:20;10.80;99.90
7704;DHT22;3894;49.700;10.770;2024-03-08T12:43:46;10.80;99.90
7704;DHT22;3894;49.700;10.770;2024-03-08T12:46:18;10.90;99.90
7704;DHT22;3894;49.700;10.770;2024-03-08T12:48:47;10.90;99.90
7704;DHT22;3894;49.700;10.770;2024-03-08T12:51:14;10.90;99.90
7704;DHT22;3894;49.700;10.770;2024-03-08T12:53:41;11.00;99.90
7704;DHT22;3894;49.700;10.770;2024-03-08T12:56:09;11.10;99.90
7704;DHT22;3894;49.700;10.770;2024-03-08T12:58:36;11.10;99.90
7704;DHT22;3894;49.700;10.770;2024-03-08T13:01:02;11.10;99.90
7704;DHT22;3894;49.700;10.770;2024-03-08T13:03:30;11.10;99.90
7704;DHT22;3894;49.700;10.770;2024-03-08T13:05:57;11.20;99.90
7704;DHT22;3894;49.700;10.770;2024-03-08T13:08:22;11.10;99.90
7704;DHT22;3894;49.700;10.770;2024-03-08T13:10:50;11.10;99.90
7704;DHT22;3894;49.700;10.770;2024-03-08T13:13:16;11.20;99.90
7704;DHT22;3894;49.700;10.770;2024-03-08T13:15:42;11.30;99.90
7704;DHT22;3894;49.700;10.770;2024-03-08T13:18:08;11.20;99.90
7704;DHT22;3894;49.700;10.770;2024-03-08T13:20:35;11.10;99.90
7704;DHT22;3894;49.700;10.770;2024-03-08T13:23:04;11.10;99.90
7704;DHT22;3894;49.700;10.770;2024-03-08T13:25:30;11.10;99.90
7704;DHT22;3894;49.700;10.770;2024-03-08T13:27:56;11.20;99.90
7704;DHT22;3894;49.700;10.770;2024-03-08T13:30:24;11.20;99.90
7704;DHT22;3894;49.700;10.770;2024-03-08T13:32:52;11.20;99.90
7704;DHT22;3894;49.700;10.770;2024-03-08T13:35:19;11.20;99.90
7704;DHT22;3894;49.700;10.770;2024-03-08T13:37:50;11.20;99.90
7704;DHT22;3894;49.700;10.770;2024-03-08T13:40:16;11.20;99.90
7704;DHT22;3894;49.700;10.770;2024-03-08T13:42:46;11.20;99.90
7704;DHT22;3894;49.700;10.770;2024-03-08T13:45:12;11.20;99.90
7704;DHT22;3894;49.700;10.770;2024-03-08T13:47:39;11.20;99.90
7704;DHT22;3894;49.700;10.770;2024-03-08T13:50:09;11.10;99.90
7704;DHT22;3894;49.700;10.770;2024-03-08T13:52:38;11.10;99.90
7704;DHT22;3894;49.700;10.770;2024-03-08T13:55:05;11.00;99.90
7704;DHT22;3894;49.700;10.770;2024-03-08T13:57:31;11.00;99.90
7704;DHT22;3894;49.700;10.770;2024-03-08T13:59:58;10.90;99.90
7704;DHT22;3894;49.700;10.770;2024-03-08T14:02:23;10.90;99.90
7704;DHT22;3894;49.700;10.770;2024-03-08T14:04:53;11.00;99.90
7704;DHT22;3894;49.700;10.770;2024-03-08T14:07:23;10.90;99.90
7704;DHT22;3894;49.700;10.770;2024-03-08T14:09:52;10.90;99.90
7704;DHT22;3894;49.700;10.770;2024-03-08T14:12:18;10.80;99.90
7704;DHT22;3894;49.700;10.770;2024-03-08T14:14:44;10.80;99.90
7704;DHT22;3894;49.700;10.770;2024-03-08T14:17:10;10.80;99.90
7704;DHT22;3894;49.700;10.770;2024-03-08T14:19:36;10.80;99.90
7704;DHT22;3894;49.700;10.770;2024-03-08T14:22:02;10.80;99.90
7704;DHT22;3894;49.700;10.770;2024-03-08T14:24:30;10.70;99.90
7704;DHT22;3894;49.700;10.770;2024-03-08T14:26:56;10.60;99.90
7704;DHT22;3894;49.700;10.770;2024-03-08T14:29:25;10.60;99.90
7704;DHT22;3894;49.700;10.770;2024-03-08T14:31:57;10.50;99.90
7704;DHT22;3894;49.700;10.770;2024-03-08T14:34:24;10.50;99.90
7704;DHT22;3894;49.700;10.770;2024-03-08T14:36:55;10.50;99.90
7704;DHT22;3894;49.700;10.770;2024-03-08T14:39:21;10.50;99.90
7704;DHT22;3894;49.700;10.770;2024-03-08T14:41:52;10.50;99.90
7704;DHT22;3894;49.700;10.770;2024-03-08T14:44:20;10.50;99.90
7704;DHT22;3894;49.700;10.770;2024-03-08T14:46:46;10.50;99.90
7704;DHT22;3894;49.700;10.770;2024-03-08T14:49:12;10.50;99.90
7704;DHT22;3894;49.700;10.770;2024-03-08T14:51:38;10.40;99.90
7704;DHT22;3894;49.700;10.770;2024-03-08T14:54:03;10.40;99.90
7704;DHT22;3894;49.700;10.770;2024-03-08T14:56:32;10.40;99.90
7704;DHT22;3894;49.700;10.770;2024-03-08T14:58:58;10.40;99.90
7704;DHT22;3894;49.700;10.770;2024-03-08T15:01:25;10.40;99.90
7704;DHT22;3894;49.700;10.770;2024-03-08T15:03:55;10.30;99.90
7704;DHT22;3894;49.700;10.770;2024-03-08T15:06:21;10.30;99.90
7704;DHT22;3894;49.700;10.770;2024-03-08T15:08:47;10.30;99.90
7704;DHT22;3894;49.700;10.770;2024-03-08T15:11:13;10.30;99.90
7704;DHT22;3894;49.700;10.770;2024-03-08T15:13:47;10.30;99.90
7704;DHT22;3894;49.700;10.770;2024-03-08T15:16:16;10.20;99.90
7704;DHT22;3894;49.700;10.770;2024-03-08T15:18:44;10.20;99.90
7704;DHT22;3894;49.700;10.770;2024-03-08T15:21:13;10.20;99.90
7704;DHT22;3894;49.700;10.770;2024-03-08T15:23:44;10.10;99.90
7704;DHT22;3894;49.700;10.770;2024-03-08T15:26:15;10.10;99.90
7704;DHT22;3894;49.700;10.770;2024-03-08T15:28:41;10.10;99.90
7704;DHT22;3894;49.700;10.770;2024-03-08T15:31:07;10.10;99.90
7704;DHT22;3894;49.700;10.770;2024-03-08T15:33:38;10.00;99.90
7704;DHT22;3894;49.700;10.770;2024-03-08T15:36:11;10.10;99.90
7704;DHT22;3894;49.700;10.770;2024-03-08T15:38:39;10.00;99.90
7704;DHT22;3894;49.700;10.770;2024-03-08T15:41:05;10.00;99.90
7704;DHT22;3894;49.700;10.770;2024-03-08T15:43:41;10.00;99.90
7704;DHT22;3894;49.700;10.770;2024-03-08T15:46:08;10.00;99.90
7704;DHT22;3894;49.700;10.770;2024-03-08T15:48:35;9.90;99.90
7704;DHT22;3894;49.700;10.770;2024-03-08T15:51:02;9.90;99.90
7704;DHT22;3894;49.700;10.770;2024-03-08T15:53:34;9.90;99.90
7704;DHT22;3894;49.700;10.770;2024-03-08T15:56:06;9.80;99.90
7704;DHT22;3894;49.700;10.770;2024-03-08T15:58:33;9.80;99.90
7704;DHT22;3894;49.700;10.770;2024-03-08T16:01:01;9.80;99.90
7704;DHT22;3894;49.700;10.770;2024-03-08T16:03:27;9.70;99.90